sensor_id;sensor_type;location;lat;lon;timestamp;temperature;humidity
55211;DHT22;41082;52.822;6.666;2023-02-23T00:01:33;8.00;99.90
55211;DHT22;41082;52.822;6.666;2023-02-23T00:03:59;8.00;99.90
55211;DHT22;41082;52.822;6.666;2023-02-23T00:06:27;8.10;99.90
55211;DHT22;41082;52.822;6.666;2023-02-23T00:08:53;8.10;99.90
55211;DHT22;41082;52.822;6.666;2023-02-23T00:11:19;8.10;99.90
55211;DHT22;41082;52.822;6.666;2023-02-23T00:13:46;8.10;99.90
55211;DHT22;41082;52.822;6.666;2023-02-23T00:16:24;8.10;99.90
55211;DHT22;41082;52.822;6.666;2023-02-23T00:18:55;8.10;99.90
55211;DHT22;41082;52.822;6.666;2023-02-23T00:21:22;8.10;99.90
55211;DHT22;41082;52.822;6.666;2023-02-23T00:23:49;8.10;99.90
55211;DHT22;41082;52.822;6.666;2023-02-23T00:26:17;8.10;99.90
55211;DHT22;41082;52.822;6.666;2023-02-23T00:28:46;8.10;99.90
55211;DHT22;41082;52.822;6.666;2023-02-23T00:31:12;8.00;99.90
55211;DHT22;41082;52.822;6.666;2023-02-23T00:33:38;8.00;99.90
55211;DHT22;41082;52.822;6.666;2023-02-23T00:36:11;8.00;99.90
55211;DHT22;41082;52.822;6.666;2023-02-23T00:38:38;8.00;99.90
55211;DHT22;41082;52.822;6.666;2023-02-23T00:41:23;8.00;99.90
55211;DHT22;41082;52.822;6.666;2023-02-23T00:43:57;7.90;99.90
55211;DHT22;41082;52.822;6.666;2023-02-23T00:46:26;7.90;99.90
55211;DHT22;41082;52.822;6.666;2023-02-23T00:48:53;7.90;99.90
55211;DHT22;41082;52.822;6.666;2023-02-23T00:51:21;7.90;99.90
55211;DHT22;41082;52.822;6.666;2023-02-23T00:53:46;7.80;99.90
55211;DHT22;41082;52.822;6.666;2023-02-23T00:56:14;7.90;99.90
55211;DHT22;41082;52.822;6.666;2023-02-23T00:58:40;7.80;99.90
55211;DHT22;41082;52.822;6.666;2023-02-23T01:01:08;7.90;99.90
55211;DHT22;41082;52.822;6.666;2023-02-23T01:03:35;7.90;99.90
55211;DHT22;41082;52.822;6.666;2023-02-23T01:06:03;7.90;99.90
55211;DHT22;41082;52.822;6.666;2023-02-23T01:08:31;7.90;99.90
55211;DHT22;41082;52.822;6.666;2023-02-23T01:10:58;8.00;99.90
55211;DHT22;41082;52.822;6.666;2023-02-23T01:13:24;7.90;99.90
55211;DHT22;41082;52.822;6.666;2023-02-23T01:15:52;8.00;99.90
55211;DHT22;41082;52.822;6.666;2023-02-23T01:18:19;8.00;99.90
55211;DHT22;41082;52.822;6.666;2023-02-23T01:20:45;8.00;99.90
55211;DHT22;41082;52.822;6.666;2023-02-23T01:23:13;8.00;99.90
55211;DHT22;41082;52.822;6.666;2023-02-23T01:25:41;8.00;99.90
55211;DHT22;41082;52.822;6.666;2023-02-23T01:28:08;8.10;99.90
55211;DHT22;41082;52.822;6.666;2023-02-23T01:30:34;8.10;99.90
55211;DHT22;41082;52.822;6.666;2023-02-23T01:32:59;8.10;99.90
55211;DHT22;41082;52.822;6.666;2023-02-23T01:35:27;8.10;99.90
55211;DHT22;41082;52.822;6.666;2023-02-23T01:37:53;8.10;99.90
55211;DHT22;41082;52.822;6.666;2023-02-23T01:40:21;8.10;99.90
55211;DHT22;41082;52.822;6.666;2023-02-23T01:42:56;8.10;99.90
55211;DHT22;41082;52.822;6.666;2023-02-23T01:45:34;8.10;99.90
55211;DHT22;41082;52.822;6.666;2023-02-23T01:48:06;8.10;99.90
55211;DHT22;41082;52.822;6.666;2023-02-23T01:53:13;8.10;99.90
55211;DHT22;41082;52.822;6.666;2023-02-23T01:55:38;8.10;99.90
55211;DHT22;41082;52.822;6.666;2023-02-23T01:58:08;8.20;99.90
55211;DHT22;41082;52.822;6.666;2023-02-23T02:00:41;8.10;99.90
55211;DHT22;41082;52.822;6.666;2023-02-23T02:03:13;8.10;99.90
55211;DHT22;41082;52.822;6.666;2023-02-23T02:05:40;8.10;99.90
55211;DHT22;41082;52.822;6.666;2023-02-23T02:08:07;8.10;99.90
55211;DHT22;41082;52.822;6.666;2023-02-23T02:10:35;8.10;99.90
55211;DHT22;41082;52.822;6.666;2023-02-23T02:13:06;8.10;99.90
55211;DHT22;41082;52.822;6.666;2023-02-23T02:15:37;8.10;99.90
55211;DHT22;41082;52.822;6.666;2023-02-23T02:18:22;8.00;99.90
55211;DHT22;41082;52.822;6.666;2023-02-23T02:38:02;8.10;99.90
55211;DHT22;41082;52.822;6.666;2023-02-23T02:40:39;8.00;99.90
55211;DHT22;41082;52.822;6.666;2023-02-23T02:43:25;8.10;99.90
55211;DHT22;41082;52.822;6.666;2023-02-23T02:46:00;8.00;99.90
55211;DHT22;41082;52.822;6.666;2023-02-23T02:48:31;8.10;99.90
55211;DHT22;41082;52.822;6.666;2023-02-23T02:51:26;8.00;99.90
55211;DHT22;41082;52.822;6.666;2023-02-23T02:56:38;8.00;99.90
55211;DHT22;41082;52.822;6.666;2023-02-23T02:59:16;8.00;99.90
55211;DHT22;41082;52.822;6.666;2023-02-23T03:02:03;8.00;99.90
55211;DHT22;41082;52.822;6.666;2023-02-23T03:04:48;8.00;99.90
55211;DHT22;41082;52.822;6.666;2023-02-23T03:07:40;8.00;99.90
55211;DHT22;41082;52.822;6.666;2023-02-23T03:10:41;8.00;99.90
55211;DHT22;41082;52.822;6.666;2023-02-23T03:19:49;8.00;99.90
55211;DHT22;41082;52.822;6.666;2023-02-23T03:22:46;8.10;99.90
55211;DHT22;41082;52.822;6.666;2023-02-23T03:25:47;8.00;99.90
55211;DHT22;41082;52.822;6.666;2023-02-23T03:28:35;8.10;99.90
55211;DHT22;41082;52.822;6.666;2023-02-23T03:31:28;8.10;99.90
55211;DHT22;41082;52.822;6.666;2023-02-23T03:37:16;8.10;99.90
55211;DHT22;41082;52.822;6.666;2023-02-23T03:40:10;8.10;99.90
55211;DHT22;41082;52.822;6.666;2023-02-23T03:42:58;8.10;99.90
55211;DHT22;41082;52.822;6.666;2023-02-23T03:45:45;8.10;99.90
55211;DHT22;41082;52.822;6.666;2023-02-23T03:48:32;8.10;99.90
55211;DHT22;41082;52.822;6.666;2023-02-23T03:51:18;8.10;99.90
55211;DHT22;41082;52.822;6.666;2023-02-23T03:54:16;8.10;99.90
55211;DHT22;41082;52.822;6.666;2023-02-23T03:57:04;8.10;99.90
55211;DHT22;41082;52.822;6.666;2023-02-23T03:59:56;8.10;99.90
55211;DHT22;41082;52.822;6.666;2023-02-23T04:02:44;8.10;99.90
55211;DHT22;41082;52.822;6.666;2023-02-23T04:05:30;8.10;99.90
55211;DHT22;41082;52.822;6.666;2023-02-23T04:08:19;8.10;99.90
55211;DHT22;41082;52.822;6.666;2023-02-23T04:14:10;8.10;99.90
55211;DHT22;41082;52.822;6.666;2023-02-23T04:16:38;8.10;99.90
55211;DHT22;41082;52.822;6.666;2023-02-23T04:19:05;8.10;99.90
55211;DHT22;41082;52.822;6.666;2023-02-23T04:21:30;8.10;99.90
55211;DHT22;41082;52.822;6.666;2023-02-23T04:23:56;8.10;99.90
55211;DHT22;41082;52.822;6.666;2023-02-23T04:26:22;8.10;99.90
55211;DHT22;41082;52.822;6.666;2023-02-23T04:28:47;8.10;99.90
55211;DHT22;41082;52.822;6.666;2023-02-23T04:31:13;8.10;99.90
55211;DHT22;41082;52.822;6.666;2023-02-23T04:33:38;8.10;99.90
55211;DHT22;41082;52.822;6.666;2023-02-23T04:36:04;8.10;99.90
55211;DHT22;41082;52.822;6.666;2023-02-23T04:38:30;8.10;99.90
55211;DHT22;41082;52.822;6.666;2023-02-23T04:40:55;8.10;99.90
55211;DHT22;41082;52.822;6.666;2023-02-23T04:43:21;8.00;99.90
55211;DHT22;41082;52.822;6.666;2023-02-23T04:45:46;8.00;99.90
55211;DHT22;41082;52.822;6.666;2023-02-23T04:48:12;8.00;99.90
55211;DHT22;41082;52.822;6.666;2023-02-23T04:50:38;8.10;99.90
55211;DHT22;41082;52.822;6.666;2023-02-23T04:53:04;8.10;99.90
55211;DHT22;41082;52.822;6.666;2023-02-23T04:55:29;8.10;99.90
55211;DHT22;41082;52.822;6.666;2023-02-23T04:57:58;8.10;99.90
55211;DHT22;41082;52.822;6.666;2023-02-23T05:00:25;8.10;99.90
55211;DHT22;41082;52.822;6.666;2023-02-23T05:02:51;8.10;99.90
55211;DHT22;41082;52.822;6.666;2023-02-23T05:05:16;8.10;99.90
55211;DHT22;41082;52.822;6.666;2023-02-23T05:07:42;8.10;99.90
55211;DHT22;41082;52.822;6.666;2023-02-23T05:10:08;8.10;99.90
55211;DHT22;41082;52.822;6.666;2023-02-23T05:12:34;8.10;99.90
55211;DHT22;41082;52.822;6.666;2023-02-23T05:15:00;8.10;99.90
55211;DHT22;41082;52.822;6.666;2023-02-23T05:17:25;8.10;99.90
55211;DHT22;41082;52.822;6.666;2023-02-23T05:19:51;8.00;99.90
55211;DHT22;41082;52.822;6.666;2023-02-23T05:22:17;8.10;99.90
55211;DHT22;41082;52.822;6.666;2023-02-23T05:24:43;8.00;99.90
55211;DHT22;41082;52.822;6.666;2023-02-23T05:27:09;8.00;99.90
55211;DHT22;41082;52.822;6.666;2023-02-23T05:29:35;8.00;99.90
55211;DHT22;41082;52.822;6.666;2023-02-23T05:32:01;7.90;99.90
55211;DHT22;41082;52.822;6.666;2023-02-23T05:34:27;8.00;99.90
55211;DHT22;41082;52.822;6.666;2023-02-23T05:36:53;7.90;99.90
55211;DHT22;41082;52.822;6.666;2023-02-23T05:39:19;7.90;99.90
55211;DHT22;41082;52.822;6.666;2023-02-23T05:41:45;7.90;99.90
55211;DHT22;41082;52.822;6.666;2023-02-23T05:44:10;7.90;99.90
55211;DHT22;41082;52.822;6.666;2023-02-23T05:46:36;7.90;99.90
55211;DHT22;41082;52.822;6.666;2023-02-23T05:49:02;7.90;99.90
55211;DHT22;41082;52.822;6.666;2023-02-23T05:51:29;7.90;99.90
55211;DHT22;41082;52.822;6.666;2023-02-23T05:53:56;7.90;99.90
55211;DHT22;41082;52.822;6.666;2023-02-23T05:56:22;7.90;99.90
55211;DHT22;41082;52.822;6.666;2023-02-23T05:58:53;7.80;99.90
55211;DHT22;41082;52.822;6.666;2023-02-23T06:01:20;7.80;99.90
55211;DHT22;41082;52.822;6.666;2023-02-23T06:03:47;7.80;99.90
55211;DHT22;41082;52.822;6.666;2023-02-23T06:06:13;7.80;99.90
55211;DHT22;41082;52.822;6.666;2023-02-23T06:08:40;7.80;99.90
55211;DHT22;41082;52.822;6.666;2023-02-23T06:11:06;7.80;99.90
55211;DHT22;41082;52.822;6.666;2023-02-23T06:13:32;7.80;99.90
55211;DHT22;41082;52.822;6.666;2023-02-23T06:15:59;7.80;99.90
55211;DHT22;41082;52.822;6.666;2023-02-23T06:18:25;7.80;99.90
55211;DHT22;41082;52.822;6.666;2023-02-23T06:20:51;7.80;99.90
55211;DHT22;41082;52.822;6.666;2023-02-23T06:23:17;7.80;99.90
55211;DHT22;41082;52.822;6.666;2023-02-23T06:25:43;7.80;99.90
55211;DHT22;41082;52.822;6.666;2023-02-23T06:28:10;7.80;99.90
55211;DHT22;41082;52.822;6.666;2023-02-23T06:30:37;7.80;99.90
55211;DHT22;41082;52.822;6.666;2023-02-23T06:33:03;7.80;99.90
55211;DHT22;41082;52.822;6.666;2023-02-23T06:35:30;7.80;99.90
55211;DHT22;41082;52.822;6.666;2023-02-23T06:37:57;7.80;99.90
55211;DHT22;41082;52.822;6.666;2023-02-23T06:40:22;7.80;99.90
55211;DHT22;41082;52.822;6.666;2023-02-23T06:42:48;7.80;99.90
55211;DHT22;41082;52.822;6.666;2023-02-23T06:45:15;7.80;99.90
55211;DHT22;41082;52.822;6.666;2023-02-23T06:47:40;7.80;99.90
55211;DHT22;41082;52.822;6.666;2023-02-23T06:50:07;7.80;99.90
55211;DHT22;41082;52.822;6.666;2023-02-23T06:52:33;7.80;99.90
55211;DHT22;41082;52.822;6.666;2023-02-23T06:54:59;7.80;99.90
55211;DHT22;41082;52.822;6.666;2023-02-23T06:57:24;7.80;99.90
55211;DHT22;41082;52.822;6.666;2023-02-23T06:59:50;7.80;99.90
55211;DHT22;41082;52.822;6.666;2023-02-23T07:02:16;7.80;99.90
55211;DHT22;41082;52.822;6.666;2023-02-23T07:04:42;7.80;99.90
55211;DHT22;41082;52.822;6.666;2023-02-23T07:07:08;7.80;99.90
55211;DHT22;41082;52.822;6.666;2023-02-23T07:09:34;7.80;99.90
55211;DHT22;41082;52.822;6.666;2023-02-23T07:12:00;7.80;99.90
55211;DHT22;41082;52.822;6.666;2023-02-23T07:14:25;7.70;99.90
55211;DHT22;41082;52.822;6.666;2023-02-23T07:16:51;7.70;99.90
55211;DHT22;41082;52.822;6.666;2023-02-23T07:19:17;7.80;99.90
55211;DHT22;41082;52.822;6.666;2023-02-23T07:21:42;7.80;99.90
55211;DHT22;41082;52.822;6.666;2023-02-23T07:24:08;7.80;99.90
55211;DHT22;41082;52.822;6.666;2023-02-23T07:26:34;7.80;99.90
55211;DHT22;41082;52.822;6.666;2023-02-23T07:29:00;7.70;99.90
55211;DHT22;41082;52.822;6.666;2023-02-23T07:31:26;7.80;99.90
55211;DHT22;41082;52.822;6.666;2023-02-23T07:33:53;7.70;99.90
55211;DHT22;41082;52.822;6.666;2023-02-23T07:36:22;7.70;99.90
55211;DHT22;41082;52.822;6.666;2023-02-23T07:38:48;7.70;99.90
55211;DHT22;41082;52.822;6.666;2023-02-23T07:41:14;7.70;99.90
55211;DHT22;41082;52.822;6.666;2023-02-23T07:43:39;7.80;99.90
55211;DHT22;41082;52.822;6.666;2023-02-23T07:46:05;7.80;99.90
55211;DHT22;41082;52.822;6.666;2023-02-23T07:48:31;7.80;99.90
55211;DHT22;41082;52.822;6.666;2023-02-23T07:50:57;7.80;99.90
55211;DHT22;41082;52.822;6.666;2023-02-23T07:53:23;7.80;99.90
55211;DHT22;41082;52.822;6.666;2023-02-23T07:55:58;7.80;99.90
55211;DHT22;41082;52.822;6.666;2023-02-23T07:58:25;7.80;99.90
55211;DHT22;41082;52.822;6.666;2023-02-23T08:00:51;7.80;99.90
55211;DHT22;41082;52.822;6.666;2023-02-23T08:03:16;7.80;99.90
55211;DHT22;41082;52.822;6.666;2023-02-23T08:05:42;7.80;99.90
55211;DHT22;41082;52.822;6.666;2023-02-23T08:08:09;7.80;99.90
55211;DHT22;41082;52.822;6.666;2023-02-23T08:10:35;7.80;99.90
55211;DHT22;41082;52.822;6.666;2023-02-23T08:13:02;7.80;99.90
55211;DHT22;41082;52.822;6.666;2023-02-23T08:15:28;7.80;99.90
55211;DHT22;41082;52.822;6.666;2023-02-23T08:17:53;7.80;99.90
55211;DHT22;41082;52.822;6.666;2023-02-23T08:20:19;7.80;99.90
55211;DHT22;41082;52.822;6.666;2023-02-23T08:22:44;7.90;99.90
55211;DHT22;41082;52.822;6.666;2023-02-23T08:25:10;7.90;99.90
55211;DHT22;41082;52.822;6.666;2023-02-23T08:27:37;7.90;99.90
55211;DHT22;41082;52.822;6.666;2023-02-23T08:30:03;7.80;99.90
55211;DHT22;41082;52.822;6.666;2023-02-23T08:32:33;7.90;99.90
55211;DHT22;41082;52.822;6.666;2023-02-23T08:35:00;7.90;99.90
55211;DHT22;41082;52.822;6.666;2023-02-23T08:37:28;7.80;99.90
55211;DHT22;41082;52.822;6.666;2023-02-23T08:39:54;7.90;99.90
55211;DHT22;41082;52.822;6.666;2023-02-23T08:42:20;7.80;99.90
55211;DHT22;41082;52.822;6.666;2023-02-23T08:44:46;7.90;99.90
55211;DHT22;41082;52.822;6.666;2023-02-23T08:47:14;7.90;99.90
55211;DHT22;41082;52.822;6.666;2023-02-23T08:49:41;7.90;99.90
55211;DHT22;41082;52.822;6.666;2023-02-23T08:52:06;7.90;99.90
55211;DHT22;41082;52.822;6.666;2023-02-23T08:54:32;7.90;99.90
55211;DHT22;41082;52.822;6.666;2023-02-23T08:56:58;7.90;99.90
55211;DHT22;41082;52.822;6.666;2023-02-23T08:59:23;7.90;99.90
55211;DHT22;41082;52.822;6.666;2023-02-23T09:01:50;7.90;99.90
55211;DHT22;41082;52.822;6.666;2023-02-23T09:04:16;8.00;99.90
55211;DHT22;41082;52.822;6.666;2023-02-23T09:06:43;8.00;99.90
55211;DHT22;41082;52.822;6.666;2023-02-23T09:09:09;8.00;99.90
55211;DHT22;41082;52.822;6.666;2023-02-23T09:11:35;8.00;99.90
55211;DHT22;41082;52.822;6.666;2023-02-23T09:14:00;8.10;99.90
55211;DHT22;41082;52.822;6.666;2023-02-23T09:16:26;8.10;99.90
55211;DHT22;41082;52.822;6.666;2023-02-23T09:18:52;8.10;99.90
55211;DHT22;41082;52.822;6.666;2023-02-23T09:21:19;8.10;99.90
55211;DHT22;41082;52.822;6.666;2023-02-23T09:23:50;8.10;99.90
55211;DHT22;41082;52.822;6.666;2023-02-23T09:26:17;8.20;99.90
55211;DHT22;41082;52.822;6.666;2023-02-23T09:28:44;8.20;99.90
55211;DHT22;41082;52.822;6.666;2023-02-23T09:31:13;8.30;99.90
55211;DHT22;41082;52.822;6.666;2023-02-23T09:33:40;8.30;99.90
55211;DHT22;41082;52.822;6.666;2023-02-23T09:36:16;8.30;99.90
55211;DHT22;41082;52.822;6.666;2023-02-23T09:38:47;8.40;99.90
55211;DHT22;41082;52.822;6.666;2023-02-23T09:41:31;8.50;99.90
55211;DHT22;41082;52.822;6.666;2023-02-23T09:46:58;8.50;99.90
55211;DHT22;41082;52.822;6.666;2023-02-23T09:49:28;8.50;99.90
55211;DHT22;41082;52.822;6.666;2023-02-23T09:51:58;8.50;99.90
55211;DHT22;41082;52.822;6.666;2023-02-23T09:54:28;8.50;99.90
55211;DHT22;41082;52.822;6.666;2023-02-23T09:56:55;8.50;99.90
55211;DHT22;41082;52.822;6.666;2023-02-23T09:59:23;8.50;99.90
55211;DHT22;41082;52.822;6.666;2023-02-23T10:05:07;8.60;99.90
55211;DHT22;41082;52.822;6.666;2023-02-23T10:07:58;8.60;99.90
55211;DHT22;41082;52.822;6.666;2023-02-23T10:13:37;8.70;99.90
55211;DHT22;41082;52.822;6.666;2023-02-23T10:16:17;8.70;99.90
55211;DHT22;41082;52.822;6.666;2023-02-23T10:18:52;8.70;99.90
55211;DHT22;41082;52.822;6.666;2023-02-23T10:21:45;8.80;99.90
55211;DHT22;41082;52.822;6.666;2023-02-23T10:24:26;8.90;99.90
55211;DHT22;41082;52.822;6.666;2023-02-23T10:27:04;8.90;99.90
55211;DHT22;41082;52.822;6.666;2023-02-23T10:29:35;8.90;99.90
55211;DHT22;41082;52.822;6.666;2023-02-23T10:32:05;9.00;99.90
55211;DHT22;41082;52.822;6.666;2023-02-23T10:34:32;9.00;99.90
55211;DHT22;41082;52.822;6.666;2023-02-23T10:37:03;9.00;99.90
55211;DHT22;41082;52.822;6.666;2023-02-23T10:39:31;9.00;99.90
55211;DHT22;41082;52.822;6.666;2023-02-23T10:42:00;9.00;99.90
55211;DHT22;41082;52.822;6.666;2023-02-23T10:44:27;9.00;99.90
55211;DHT22;41082;52.822;6.666;2023-02-23T10:49:31;9.10;99.90
55211;DHT22;41082;52.822;6.666;2023-02-23T10:51:59;9.10;99.90
55211;DHT22;41082;52.822;6.666;2023-02-23T10:54:41;9.10;99.90
55211;DHT22;41082;52.822;6.666;2023-02-23T10:57:19;9.20;99.90
55211;DHT22;41082;52.822;6.666;2023-02-23T11:00:07;9.10;99.90
55211;DHT22;41082;52.822;6.666;2023-02-23T11:02:46;9.10;99.90
55211;DHT22;41082;52.822;6.666;2023-02-23T11:05:36;9.10;99.90
55211;DHT22;41082;52.822;6.666;2023-02-23T11:08:24;9.00;99.90
55211;DHT22;41082;52.822;6.666;2023-02-23T11:11:05;8.90;99.90
55211;DHT22;41082;52.822;6.666;2023-02-23T11:18:49;9.00;99.90
55211;DHT22;41082;52.822;6.666;2023-02-23T11:21:30;9.10;99.90
55211;DHT22;41082;52.822;6.666;2023-02-23T11:24:25;9.10;99.90
55211;DHT22;41082;52.822;6.666;2023-02-23T11:26:55;9.20;99.90
55211;DHT22;41082;52.822;6.666;2023-02-23T11:29:30;9.20;99.90
55211;DHT22;41082;52.822;6.666;2023-02-23T11:32:25;9.20;99.90
55211;DHT22;41082;52.822;6.666;2023-02-23T11:37:43;9.30;99.90
55211;DHT22;41082;52.822;6.666;2023-02-23T11:40:28;9.30;99.90
55211;DHT22;41082;52.822;6.666;2023-02-23T11:45:37;9.30;99.90
55211;DHT22;41082;52.822;6.666;2023-02-23T11:48:03;9.40;99.90
55211;DHT22;41082;52.822;6.666;2023-02-23T11:50:32;9.40;99.90
55211;DHT22;41082;52.822;6.666;2023-02-23T11:53:12;9.40;99.90
55211;DHT22;41082;52.822;6.666;2023-02-23T11:55:46;9.50;99.90
55211;DHT22;41082;52.822;6.666;2023-02-23T11:58:34;9.50;99.90
55211;DHT22;41082;52.822;6.666;2023-02-23T12:01:13;9.50;99.90
55211;DHT22;41082;52.822;6.666;2023-02-23T12:03:47;9.50;99.90
55211;DHT22;41082;52.822;6.666;2023-02-23T12:09:23;9.60;99.90
55211;DHT22;41082;52.822;6.666;2023-02-23T12:11:56;9.70;99.90
55211;DHT22;41082;52.822;6.666;2023-02-23T12:14:42;9.70;99.90
55211;DHT22;41082;52.822;6.666;2023-02-23T12:17:26;9.70;99.90
55211;DHT22;41082;52.822;6.666;2023-02-23T12:20:05;9.70;99.90
55211;DHT22;41082;52.822;6.666;2023-02-23T12:22:38;9.60;99.90
55211;DHT22;41082;52.822;6.666;2023-02-23T12:27:52;9.50;99.90
55211;DHT22;41082;52.822;6.666;2023-02-23T12:30:39;9.40;99.90
55211;DHT22;41082;52.822;6.666;2023-02-23T12:33:25;9.40;99.90
55211;DHT22;41082;52.822;6.666;2023-02-23T12:41:38;9.50;99.90
55211;DHT22;41082;52.822;6.666;2023-02-23T12:44:40;9.50;99.90
55211;DHT22;41082;52.822;6.666;2023-02-23T12:47:34;9.50;99.90
55211;DHT22;41082;52.822;6.666;2023-02-23T12:50:26;9.50;99.90
55211;DHT22;41082;52.822;6.666;2023-02-23T12:52:56;9.50;99.90
55211;DHT22;41082;52.822;6.666;2023-02-23T12:58:32;9.60;99.90
55211;DHT22;41082;52.822;6.666;2023-02-23T13:01:05;9.60;99.90
55211;DHT22;41082;52.822;6.666;2023-02-23T13:03:52;9.60;99.90
55211;DHT22;41082;52.822;6.666;2023-02-23T13:06:32;9.60;99.90
55211;DHT22;41082;52.822;6.666;2023-02-23T13:09:17;9.60;99.90
55211;DHT22;41082;52.822;6.666;2023-02-23T13:17:57;9.90;99.90
55211;DHT22;41082;52.822;6.666;2023-02-23T13:20:36;10.00;99.90
55211;DHT22;41082;52.822;6.666;2023-02-23T13:29:00;10.20;99.90
55211;DHT22;41082;52.822;6.666;2023-02-23T13:31:38;10.20;99.90
55211;DHT22;41082;52.822;6.666;2023-02-23T13:34:18;10.20;99.90
55211;DHT22;41082;52.822;6.666;2023-02-23T13:36:46;10.20;99.90
55211;DHT22;41082;52.822;6.666;2023-02-23T13:39:47;10.10;99.90
55211;DHT22;41082;52.822;6.666;2023-02-23T13:51:05;10.20;99.90
55211;DHT22;41082;52.822;6.666;2023-02-23T13:53:37;10.00;99.90
55211;DHT22;41082;52.822;6.666;2023-02-23T13:56:10;10.00;99.90
55211;DHT22;41082;52.822;6.666;2023-02-23T13:58:50;10.00;99.90
55211;DHT22;41082;52.822;6.666;2023-02-23T14:01:20;10.00;99.90
55211;DHT22;41082;52.822;6.666;2023-02-23T14:04:01;10.10;99.90
55211;DHT22;41082;52.822;6.666;2023-02-23T14:06:30;10.00;99.90
55211;DHT22;41082;52.822;6.666;2023-02-23T14:22:21;9.80;99.90
55211;DHT22;41082;52.822;6.666;2023-02-23T14:27:56;9.80;99.90
55211;DHT22;41082;52.822;6.666;2023-02-23T14:30:26;9.80;99.90
55211;DHT22;41082;52.822;6.666;2023-02-23T14:32:52;9.70;99.90
55211;DHT22;41082;52.822;6.666;2023-02-23T14:38:02;9.70;99.90
55211;DHT22;41082;52.822;6.666;2023-02-23T14:40:33;9.70;99.90
55211;DHT22;41082;52.822;6.666;2023-02-23T14:43:37;9.70;99.90
55211;DHT22;41082;52.822;6.666;2023-02-23T14:46:10;9.60;99.90
55211;DHT22;41082;52.822;6.666;2023-02-23T14:48:39;9.60;99.90
55211;DHT22;41082;52.822;6.666;2023-02-23T14:51:13;9.50;99.90
55211;DHT22;41082;52.822;6.666;2023-02-23T14:53:41;9.40;99.90
55211;DHT22;41082;52.822;6.666;2023-02-23T14:56:20;9.30;99.90
55211;DHT22;41082;52.822;6.666;2023-02-23T14:58:50;9.10;99.90
55211;DHT22;41082;52.822;6.666;2023-02-23T15:01:36;9.00;99.90
55211;DHT22;41082;52.822;6.666;2023-02-23T15:04:11;8.90;99.90
55211;DHT22;41082;52.822;6.666;2023-02-23T15:06:38;8.80;99.90
55211;DHT22;41082;52.822;6.666;2023-02-23T15:09:06;8.70;99.90
55211;DHT22;41082;52.822;6.666;2023-02-23T15:11:32;8.60;99.90
55211;DHT22;41082;52.822;6.666;2023-02-23T15:13:59;8.50;99.90
55211;DHT22;41082;52.822;6.666;2023-02-23T15:16:30;8.50;99.90
55211;DHT22;41082;52.822;6.666;2023-02-23T15:18:59;8.50;99.90
55211;DHT22;41082;52.822;6.666;2023-02-23T15:21:27;8.40;99.90
55211;DHT22;41082;52.822;6.666;2023-02-23T15:24:06;8.40;99.90
55211;DHT22;41082;52.822;6.666;2023-02-23T15:26:37;8.40;99.90
55211;DHT22;41082;52.822;6.666;2023-02-23T15:31:35;8.30;99.90
55211;DHT22;41082;52.822;6.666;2023-02-23T15:34:09;8.20;99.90
55211;DHT22;41082;52.822;6.666;2023-02-23T15:36:35;8.10;99.90
55211;DHT22;41082;52.822;6.666;2023-02-23T15:39:05;8.10;99.90
55211;DHT22;41082;52.822;6.666;2023-02-23T15:41:34;8.20;99.90
55211;DHT22;41082;52.822;6.666;2023-02-23T15:44:21;8.20;99.90
55211;DHT22;41082;52.822;6.666;2023-02-23T15:46:53;8.10;99.90
55211;DHT22;41082;52.822;6.666;2023-02-23T15:49:19;8.10;99.90
55211;DHT22;41082;52.822;6.666;2023-02-23T15:51:50;8.10;99.90
55211;DHT22;41082;52.822;6.666;2023-02-23T15:54:27;8.10;99.90
55211;DHT22;41082;52.822;6.666;2023-02-23T15:56:57;8.10;99.90
55211;DHT22;41082;52.822;6.666;2023-02-23T15:59:28;7.90;99.90
55211;DHT22;41082;52.822;6.666;2023-02-23T16:01:57;7.70;99.90
55211;DHT22;41082;52.822;6.666;2023-02-23T16:04:33;7.80;99.90
55211;DHT22;41082;52.822;6.666;2023-02-23T16:07:16;7.70;99.90
55211;DHT22;41082;52.822;6.666;2023-02-23T16:10:19;7.70;99.90
55211;DHT22;41082;52.822;6.666;2023-02-23T16:12:49;7.70;99.90
55211;DHT22;41082;52.822;6.666;2023-02-23T16:15:24;7.60;99.90
55211;DHT22;41082;52.822;6.666;2023-02-23T16:17:55;7.60;99.90
55211;DHT22;41082;52.822;6.666;2023-02-23T16:20:36;7.50;99.90
55211;DHT22;41082;52.822;6.666;2023-02-23T16:23:09;7.50;99.90
55211;DHT22;41082;52.822;6.666;2023-02-23T16:25:41;7.50;99.90
55211;DHT22;41082;52.822;6.666;2023-02-23T16:28:11;7.50;99.90
55211;DHT22;41082;52.822;6.666;2023-02-23T16:30:43;7.50;99.90
55211;DHT22;41082;52.822;6.666;2023-02-23T16:33:22;7.50;99.90
55211;DHT22;41082;52.822;6.666;2023-02-23T16:35:50;7.50;99.90
55211;DHT22;41082;52.822;6.666;2023-02-23T16:38:32;7.50;99.90
55211;DHT22;41082;52.822;6.666;2023-02-23T16:40:58;7.50;99.90
55211;DHT22;41082;52.822;6.666;2023-02-23T16:43:23;7.50;99.90
55211;DHT22;41082;52.822;6.666;2023-02-23T16:45:49;7.50;99.90
55211;DHT22;41082;52.822;6.666;2023-02-23T16:48:16;7.50;99.90
55211;DHT22;41082;52.822;6.666;2023-02-23T16:50:43;7.50;99.90
55211;DHT22;41082;52.822;6.666;2023-02-23T16:53:10;7.50;99.90
55211;DHT22;41082;52.822;6.666;2023-02-23T16:55:40;7.40;99.90
55211;DHT22;41082;52.822;6.666;2023-02-23T16:58:15;7.50;99.90
55211;DHT22;41082;52.822;6.666;2023-02-23T17:00:42;7.40;99.90
55211;DHT22;41082;52.822;6.666;2023-02-23T17:03:26;7.50;99.90
55211;DHT22;41082;52.822;6.666;2023-02-23T17:05:52;7.50;99.90
55211;DHT22;41082;52.822;6.666;2023-02-23T17:08:18;7.40;99.90
55211;DHT22;41082;52.822;6.666;2023-02-23T17:10:46;7.40;99.90
55211;DHT22;41082;52.822;6.666;2023-02-23T17:13:19;7.40;99.90
55211;DHT22;41082;52.822;6.666;2023-02-23T17:15:46;7.40;99.90
55211;DHT22;41082;52.822;6.666;2023-02-23T17:18:29;7.40;99.90
55211;DHT22;41082;52.822;6.666;2023-02-23T17:20:56;7.40;99.90
55211;DHT22;41082;52.822;6.666;2023-02-23T17:23:24;7.40;99.90
55211;DHT22;41082;52.822;6.666;2023-02-23T17:25:52;7.40;99.90
55211;DHT22;41082;52.822;6.666;2023-02-23T17:28:17;7.40;99.90
55211;DHT22;41082;52.822;6.666;2023-02-23T17:30:44;7.40;99.90
55211;DHT22;41082;52.822;6.666;2023-02-23T17:33:10;7.40;99.90
55211;DHT22;41082;52.822;6.666;2023-02-23T17:35:36;7.40;99.90
55211;DHT22;41082;52.822;6.666;2023-02-23T17:38:03;7.40;99.90
55211;DHT22;41082;52.822;6.666;2023-02-23T17:40:29;7.40;99.90
55211;DHT22;41082;52.822;6.666;2023-02-23T17:43:00;7.40;99.90
55211;DHT22;41082;52.822;6.666;2023-02-23T17:45:27;7.40;99.90
55211;DHT22;41082;52.822;6.666;2023-02-23T17:47:53;7.30;99.90
55211;DHT22;41082;52.822;6.666;2023-02-23T17:50:20;7.30;99.90
55211;DHT22;41082;52.822;6.666;2023-02-23T17:52:49;7.30;99.90
55211;DHT22;41082;52.822;6.666;2023-02-23T17:55:16;7.20;99.90
55211;DHT22;41082;52.822;6.666;2023-02-23T17:57:42;7.20;99.90
55211;DHT22;41082;52.822;6.666;2023-02-23T18:00:10;7.20;99.90
55211;DHT22;41082;52.822;6.666;2023-02-23T18:02:37;7.20;99.90
55211;DHT22;41082;52.822;6.666;2023-02-23T18:05:03;7.10;99.90
55211;DHT22;41082;52.822;6.666;2023-02-23T18:07:29;7.10;99.90